sensor_id;sensor_type;location;lat;lon;timestamp;P1;durP1;ratioP1;P2;durP2;ratioP2
65755;SDS011;69208;47.502;18.940;2023-07-31T00:00:54;4.87;;;3.55;;
65755;SDS011;69208;47.502;18.940;2023-07-31T00:01:57;6.20;;;3.78;;
65755;SDS011;69208;47.502;18.940;2023-07-31T00:03:00;3.97;;;3.33;;
65755;SDS011;69208;47.502;18.940;2023-07-31T00:04:03;3.45;;;3.05;;
65755;SDS011;69208;47.502;18.940;2023-07-31T00:05:07;6.28;;;3.92;;
65755;SDS011;69208;47.502;18.940;2023-07-31T00:06:11;5.55;;;3.35;;
65755;SDS011;69208;47.502;18.940;2023-07-31T00:07:14;4.12;;;3.08;;
65755;SDS011;69208;47.502;18.940;2023-07-31T00:08:17;5.40;;;3.33;;
65755;SDS011;69208;47.502;18.940;2023-07-31T00:09:20;5.40;;;3.28;;
65755;SDS011;69208;47.502;18.940;2023-07-31T00:10:23;4.82;;;3.42;;
65755;SDS011;69208;47.502;18.940;2023-07-31T00:11:26;5.37;;;3.35;;
65755;SDS011;69208;47.502;18.940;2023-07-31T00:12:29;4.50;;;2.92;;
65755;SDS011;69208;47.502;18.940;2023-07-31T00:13:32;4.97;;;3.15;;
65755;SDS011;69208;47.502;18.940;2023-07-31T00:14:35;6.00;;;3.30;;
65755;SDS011;69208;47.502;18.940;2023-07-31T00:15:38;4.30;;;3.03;;
65755;SDS011;69208;47.502;18.940;2023-07-31T00:16:41;7.82;;;2.90;;
65755;SDS011;69208;47.502;18.940;2023-07-31T00:17:44;3.87;;;3.15;;
65755;SDS011;69208;47.502;18.940;2023-07-31T00:18:47;3.47;;;2.65;;
65755;SDS011;69208;47.502;18.940;2023-07-31T00:19:50;3.83;;;3.03;;
65755;SDS011;69208;47.502;18.940;2023-07-31T00:20:53;3.53;;;2.83;;
65755;SDS011;69208;47.502;18.940;2023-07-31T00:21:56;3.67;;;2.87;;
65755;SDS011;69208;47.502;18.940;2023-07-31T00:22:59;4.35;;;2.92;;
65755;SDS011;69208;47.502;18.940;2023-07-31T00:24:02;4.03;;;2.78;;
65755;SDS011;69208;47.502;18.940;2023-07-31T00:25:05;3.85;;;3.10;;
65755;SDS011;69208;47.502;18.940;2023-07-31T00:26:08;4.55;;;2.95;;
65755;SDS011;69208;47.502;18.940;2023-07-31T00:27:12;3.53;;;2.80;;
65755;SDS011;69208;47.502;18.940;2023-07-31T00:28:14;4.43;;;3.05;;
65755;SDS011;69208;47.502;18.940;2023-07-31T00:29:18;5.60;;;3.12;;
65755;SDS011;69208;47.502;18.940;2023-07-31T00:30:21;3.80;;;3.00;;
65755;SDS011;69208;47.502;18.940;2023-07-31T00:31:24;4.95;;;3.10;;
65755;SDS011;69208;47.502;18.940;2023-07-31T00:32:27;3.67;;;2.78;;
65755;SDS011;69208;47.502;18.940;2023-07-31T00:33:31;4.53;;;3.05;;
65755;SDS011;69208;47.502;18.940;2023-07-31T00:34:34;4.07;;;3.10;;
65755;SDS011;69208;47.502;18.940;2023-07-31T00:35:37;4.70;;;3.10;;
65755;SDS011;69208;47.502;18.940;2023-07-31T00:36:40;4.62;;;3.00;;
65755;SDS011;69208;47.502;18.940;2023-07-31T00:37:43;3.80;;;3.00;;
65755;SDS011;69208;47.502;18.940;2023-07-31T00:38:46;5.30;;;3.12;;
65755;SDS011;69208;47.502;18.940;2023-07-31T00:39:49;3.97;;;2.87;;
65755;SDS011;69208;47.502;18.940;2023-07-31T00:40:51;4.68;;;3.10;;
65755;SDS011;69208;47.502;18.940;2023-07-31T00:41:54;4.72;;;3.15;;
65755;SDS011;69208;47.502;18.940;2023-07-31T00:42:57;4.20;;;3.00;;
65755;SDS011;69208;47.502;18.940;2023-07-31T00:44:04;6.03;;;3.22;;
65755;SDS011;69208;47.502;18.940;2023-07-31T00:45:07;5.90;;;3.30;;
65755;SDS011;69208;47.502;18.940;2023-07-31T00:46:10;3.42;;;2.80;;
65755;SDS011;69208;47.502;18.940;2023-07-31T00:47:13;9.15;;;3.33;;
65755;SDS011;69208;47.502;18.940;2023-07-31T00:48:17;4.60;;;3.15;;
65755;SDS011;69208;47.502;18.940;2023-07-31T00:49:20;4.80;;;3.30;;
65755;SDS011;69208;47.502;18.940;2023-07-31T00:50:24;4.32;;;3.47;;
65755;SDS011;69208;47.502;18.940;2023-07-31T00:51:27;5.68;;;3.60;;
65755;SDS011;69208;47.502;18.940;2023-07-31T00:52:30;4.50;;;3.55;;
65755;SDS011;69208;47.502;18.940;2023-07-31T00:53:34;5.18;;;3.70;;
65755;SDS011;69208;47.502;18.940;2023-07-31T00:54:38;4.05;;;3.20;;
65755;SDS011;69208;47.502;18.940;2023-07-31T00:55:42;5.55;;;3.37;;
65755;SDS011;69208;47.502;18.940;2023-07-31T00:56:45;5.90;;;4.05;;
65755;SDS011;69208;47.502;18.940;2023-07-31T00:57:51;5.12;;;3.40;;
65755;SDS011;69208;47.502;18.940;2023-07-31T00:58:58;5.72;;;3.90;;
65755;SDS011;69208;47.502;18.940;2023-07-31T01:00:01;5.07;;;3.60;;
65755;SDS011;69208;47.502;18.940;2023-07-31T01:01:04;5.75;;;3.95;;
65755;SDS011;69208;47.502;18.940;2023-07-31T01:02:06;4.65;;;3.67;;
65755;SDS011;69208;47.502;18.940;2023-07-31T01:03:10;5.68;;;3.70;;
65755;SDS011;69208;47.502;18.940;2023-07-31T01:04:13;5.28;;;3.58;;
65755;SDS011;69208;47.502;18.940;2023-07-31T01:05:18;4.28;;;3.30;;
65755;SDS011;69208;47.502;18.940;2023-07-31T01:07:51;5.28;;;3.37;;
65755;SDS011;69208;47.502;18.940;2023-07-31T01:09:02;3.60;;;2.97;;
65755;SDS011;69208;47.502;18.940;2023-07-31T01:10:16;3.90;;;3.12;;
65755;SDS011;69208;47.502;18.940;2023-07-31T01:11:25;3.78;;;2.90;;
65755;SDS011;69208;47.502;18.940;2023-07-31T01:13:47;4.00;;;3.15;;
65755;SDS011;69208;47.502;18.940;2023-07-31T01:14:52;10.73;;;3.47;;
65755;SDS011;69208;47.502;18.940;2023-07-31T01:16:04;3.35;;;2.80;;
65755;SDS011;69208;47.502;18.940;2023-07-31T01:17:06;5.05;;;3.10;;
65755;SDS011;69208;47.502;18.940;2023-07-31T01:18:09;4.70;;;3.30;;
65755;SDS011;69208;47.502;18.940;2023-07-31T01:19:13;4.65;;;3.10;;
65755;SDS011;69208;47.502;18.940;2023-07-31T01:20:23;4.82;;;3.15;;
65755;SDS011;69208;47.502;18.940;2023-07-31T01:22:48;5.12;;;2.97;;
65755;SDS011;69208;47.502;18.940;2023-07-31T01:26:40;4.90;;;2.97;;
65755;SDS011;69208;47.502;18.940;2023-07-31T01:27:59;4.25;;;3.12;;
65755;SDS011;69208;47.502;18.940;2023-07-31T01:30:16;3.55;;;2.78;;
65755;SDS011;69208;47.502;18.940;2023-07-31T01:31:24;4.50;;;2.50;;
65755;SDS011;69208;47.502;18.940;2023-07-31T01:32:30;3.22;;;2.60;;
65755;SDS011;69208;47.502;18.940;2023-07-31T01:33:33;3.80;;;2.65;;
65755;SDS011;69208;47.502;18.940;2023-07-31T01:34:39;4.68;;;3.20;;
65755;SDS011;69208;47.502;18.940;2023-07-31T01:35:44;6.07;;;3.30;;
65755;SDS011;69208;47.502;18.940;2023-07-31T01:36:48;5.25;;;3.05;;
65755;SDS011;69208;47.502;18.940;2023-07-31T01:37:54;3.25;;;2.67;;
65755;SDS011;69208;47.502;18.940;2023-07-31T01:38:58;4.15;;;2.90;;
65755;SDS011;69208;47.502;18.940;2023-07-31T01:40:04;3.92;;;2.53;;
65755;SDS011;69208;47.502;18.940;2023-07-31T01:41:08;3.05;;;2.58;;
65755;SDS011;69208;47.502;18.940;2023-07-31T01:42:11;4.03;;;3.12;;
65755;SDS011;69208;47.502;18.940;2023-07-31T01:43:14;5.45;;;3.03;;
65755;SDS011;69208;47.502;18.940;2023-07-31T01:44:17;4.70;;;2.90;;
65755;SDS011;69208;47.502;18.940;2023-07-31T01:45:20;4.45;;;2.70;;
65755;SDS011;69208;47.502;18.940;2023-07-31T01:46:23;4.93;;;3.00;;
65755;SDS011;69208;47.502;18.940;2023-07-31T01:47:26;4.22;;;2.70;;
65755;SDS011;69208;47.502;18.940;2023-07-31T01:48:28;4.05;;;2.65;;
65755;SDS011;69208;47.502;18.940;2023-07-31T01:49:38;3.80;;;2.53;;
65755;SDS011;69208;47.502;18.940;2023-07-31T01:50:40;3.35;;;2.50;;
65755;SDS011;69208;47.502;18.940;2023-07-31T01:51:43;4.62;;;2.80;;
65755;SDS011;69208;47.502;18.940;2023-07-31T01:52:46;3.45;;;2.55;;
65755;SDS011;69208;47.502;18.940;2023-07-31T01:53:50;3.53;;;2.45;;
65755;SDS011;69208;47.502;18.940;2023-07-31T01:54:52;2.92;;;2.62;;
65755;SDS011;69208;47.502;18.940;2023-07-31T01:55:55;3.35;;;2.65;;
65755;SDS011;69208;47.502;18.940;2023-07-31T01:56:58;3.80;;;2.42;;
65755;SDS011;69208;47.502;18.940;2023-07-31T01:58:02;5.22;;;2.45;;
65755;SDS011;69208;47.502;18.940;2023-07-31T01:59:05;4.93;;;2.67;;
65755;SDS011;69208;47.502;18.940;2023-07-31T02:00:08;3.30;;;2.50;;
65755;SDS011;69208;47.502;18.940;2023-07-31T02:01:11;3.85;;;2.55;;
65755;SDS011;69208;47.502;18.940;2023-07-31T02:02:14;2.80;;;2.33;;
65755;SDS011;69208;47.502;18.940;2023-07-31T02:03:17;2.55;;;2.35;;
65755;SDS011;69208;47.502;18.940;2023-07-31T02:04:20;4.18;;;2.30;;
65755;SDS011;69208;47.502;18.940;2023-07-31T02:05:23;3.40;;;2.60;;
65755;SDS011;69208;47.502;18.940;2023-07-31T02:06:26;3.03;;;2.33;;
65755;SDS011;69208;47.502;18.940;2023-07-31T02:07:29;5.07;;;2.50;;
65755;SDS011;69208;47.502;18.940;2023-07-31T02:08:32;4.55;;;2.45;;
65755;SDS011;69208;47.502;18.940;2023-07-31T02:09:35;2.60;;;2.35;;
65755;SDS011;69208;47.502;18.940;2023-07-31T02:10:38;2.95;;;2.45;;
65755;SDS011;69208;47.502;18.940;2023-07-31T02:11:41;3.05;;;2.53;;
65755;SDS011;69208;47.502;18.940;2023-07-31T02:12:44;2.83;;;2.40;;
65755;SDS011;69208;47.502;18.940;2023-07-31T02:13:48;3.40;;;2.62;;
65755;SDS011;69208;47.502;18.940;2023-07-31T02:14:50;4.25;;;2.45;;
65755;SDS011;69208;47.502;18.940;2023-07-31T02:15:53;3.03;;;2.28;;
65755;SDS011;69208;47.502;18.940;2023-07-31T02:16:56;3.75;;;2.42;;
65755;SDS011;69208;47.502;18.940;2023-07-31T02:17:59;3.10;;;2.37;;
65755;SDS011;69208;47.502;18.940;2023-07-31T02:19:02;3.78;;;2.40;;
65755;SDS011;69208;47.502;18.940;2023-07-31T02:20:07;5.75;;;2.70;;
65755;SDS011;69208;47.502;18.940;2023-07-31T02:21:10;2.53;;;2.30;;
65755;SDS011;69208;47.502;18.940;2023-07-31T02:22:13;2.90;;;2.37;;
65755;SDS011;69208;47.502;18.940;2023-07-31T02:23:16;4.47;;;2.53;;
65755;SDS011;69208;47.502;18.940;2023-07-31T02:24:20;3.10;;;2.40;;
65755;SDS011;69208;47.502;18.940;2023-07-31T02:25:23;2.47;;;2.28;;
65755;SDS011;69208;47.502;18.940;2023-07-31T02:26:26;3.42;;;2.70;;
65755;SDS011;69208;47.502;18.940;2023-07-31T02:27:29;4.70;;;2.50;;
65755;SDS011;69208;47.502;18.940;2023-07-31T02:28:32;3.03;;;2.40;;
65755;SDS011;69208;47.502;18.940;2023-07-31T02:29:35;2.92;;;2.20;;
65755;SDS011;69208;47.502;18.940;2023-07-31T02:30:38;3.12;;;2.50;;
65755;SDS011;69208;47.502;18.940;2023-07-31T02:31:41;3.95;;;2.60;;
65755;SDS011;69208;47.502;18.940;2023-07-31T02:32:44;3.42;;;2.20;;
65755;SDS011;69208;47.502;18.940;2023-07-31T02:33:47;3.67;;;2.40;;
65755;SDS011;69208;47.502;18.940;2023-07-31T02:34:50;4.18;;;2.45;;
65755;SDS011;69208;47.502;18.940;2023-07-31T02:35:53;3.87;;;2.40;;
65755;SDS011;69208;47.502;18.940;2023-07-31T02:36:57;4.12;;;2.75;;
65755;SDS011;69208;47.502;18.940;2023-07-31T02:38:00;4.47;;;2.60;;
65755;SDS011;69208;47.502;18.940;2023-07-31T02:39:03;3.53;;;2.30;;
65755;SDS011;69208;47.502;18.940;2023-07-31T02:40:06;3.10;;;2.30;;
65755;SDS011;69208;47.502;18.940;2023-07-31T02:41:09;3.58;;;2.30;;
65755;SDS011;69208;47.502;18.940;2023-07-31T02:42:12;3.72;;;2.45;;
65755;SDS011;69208;47.502;18.940;2023-07-31T02:43:16;3.97;;;2.47;;
65755;SDS011;69208;47.502;18.940;2023-07-31T02:44:19;3.75;;;2.37;;
65755;SDS011;69208;47.502;18.940;2023-07-31T02:45:23;4.40;;;2.60;;
65755;SDS011;69208;47.502;18.940;2023-07-31T02:46:26;4.43;;;2.50;;
65755;SDS011;69208;47.502;18.940;2023-07-31T02:47:29;5.20;;;2.60;;
65755;SDS011;69208;47.502;18.940;2023-07-31T02:48:32;4.82;;;2.50;;
65755;SDS011;69208;47.502;18.940;2023-07-31T02:49:35;4.65;;;2.70;;
65755;SDS011;69208;47.502;18.940;2023-07-31T02:50:38;3.00;;;2.22;;
65755;SDS011;69208;47.502;18.940;2023-07-31T02:51:41;3.58;;;2.70;;
65755;SDS011;69208;47.502;18.940;2023-07-31T02:52:44;4.78;;;2.83;;
65755;SDS011;69208;47.502;18.940;2023-07-31T02:53:47;5.35;;;2.62;;
65755;SDS011;69208;47.502;18.940;2023-07-31T02:54:50;3.35;;;2.53;;
65755;SDS011;69208;47.502;18.940;2023-07-31T02:55:53;5.15;;;2.90;;
65755;SDS011;69208;47.502;18.940;2023-07-31T02:56:56;3.15;;;2.58;;
65755;SDS011;69208;47.502;18.940;2023-07-31T02:57:59;4.62;;;2.60;;
65755;SDS011;69208;47.502;18.940;2023-07-31T02:59:02;4.43;;;2.67;;
65755;SDS011;69208;47.502;18.940;2023-07-31T03:00:05;3.45;;;2.60;;
65755;SDS011;69208;47.502;18.940;2023-07-31T03:01:11;4.15;;;2.65;;
65755;SDS011;69208;47.502;18.940;2023-07-31T03:02:14;5.75;;;2.70;;
65755;SDS011;69208;47.502;18.940;2023-07-31T03:03:18;4.12;;;2.42;;
65755;SDS011;69208;47.502;18.940;2023-07-31T03:04:21;4.18;;;2.50;;
65755;SDS011;69208;47.502;18.940;2023-07-31T03:05:24;3.87;;;2.50;;
65755;SDS011;69208;47.502;18.940;2023-07-31T03:06:27;3.37;;;2.67;;
65755;SDS011;69208;47.502;18.940;2023-07-31T03:07:30;6.53;;;3.15;;
65755;SDS011;69208;47.502;18.940;2023-07-31T03:08:33;5.32;;;2.80;;
65755;SDS011;69208;47.502;18.940;2023-07-31T03:09:36;4.18;;;2.53;;
65755;SDS011;69208;47.502;18.940;2023-07-31T03:10:39;4.37;;;2.80;;
65755;SDS011;69208;47.502;18.940;2023-07-31T03:11:41;2.95;;;2.30;;
65755;SDS011;69208;47.502;18.940;2023-07-31T03:12:46;4.47;;;2.72;;
65755;SDS011;69208;47.502;18.940;2023-07-31T03:13:50;4.90;;;2.40;;
65755;SDS011;69208;47.502;18.940;2023-07-31T03:14:53;6.43;;;2.60;;
65755;SDS011;69208;47.502;18.940;2023-07-31T03:15:56;4.03;;;2.70;;
65755;SDS011;69208;47.502;18.940;2023-07-31T03:16:59;3.97;;;2.33;;
65755;SDS011;69208;47.502;18.940;2023-07-31T03:18:02;4.05;;;2.50;;
65755;SDS011;69208;47.502;18.940;2023-07-31T03:19:05;2.75;;;2.40;;
65755;SDS011;69208;47.502;18.940;2023-07-31T03:20:08;2.70;;;2.30;;
65755;SDS011;69208;47.502;18.940;2023-07-31T03:21:12;5.93;;;2.60;;
65755;SDS011;69208;47.502;18.940;2023-07-31T03:22:15;3.90;;;2.47;;
65755;SDS011;69208;47.502;18.940;2023-07-31T03:23:18;2.60;;;2.20;;
65755;SDS011;69208;47.502;18.940;2023-07-31T03:24:21;3.45;;;2.33;;
65755;SDS011;69208;47.502;18.940;2023-07-31T03:25:24;5.00;;;2.35;;
65755;SDS011;69208;47.502;18.940;2023-07-31T03:26:27;3.58;;;2.42;;
65755;SDS011;69208;47.502;18.940;2023-07-31T03:27:32;3.08;;;2.28;;
65755;SDS011;69208;47.502;18.940;2023-07-31T03:28:35;4.75;;;2.78;;
65755;SDS011;69208;47.502;18.940;2023-07-31T03:29:38;3.67;;;2.37;;
65755;SDS011;69208;47.502;18.940;2023-07-31T03:30:41;3.70;;;2.37;;
65755;SDS011;69208;47.502;18.940;2023-07-31T03:31:44;4.60;;;2.50;;
65755;SDS011;69208;47.502;18.940;2023-07-31T03:32:47;4.15;;;2.20;;
65755;SDS011;69208;47.502;18.940;2023-07-31T03:33:50;4.20;;;2.65;;
65755;SDS011;69208;47.502;18.940;2023-07-31T03:34:53;4.30;;;2.28;;
65755;SDS011;69208;47.502;18.940;2023-07-31T03:35:56;3.22;;;2.55;;
65755;SDS011;69208;47.502;18.940;2023-07-31T03:36:59;3.40;;;2.40;;
65755;SDS011;69208;47.502;18.940;2023-07-31T03:38:02;4.12;;;2.28;;
65755;SDS011;69208;47.502;18.940;2023-07-31T03:39:05;3.37;;;2.33;;
65755;SDS011;69208;47.502;18.940;2023-07-31T03:40:08;3.47;;;2.20;;
65755;SDS011;69208;47.502;18.940;2023-07-31T03:41:11;3.58;;;2.22;;
65755;SDS011;69208;47.502;18.940;2023-07-31T03:42:14;2.42;;;2.15;;
65755;SDS011;69208;47.502;18.940;2023-07-31T03:43:17;2.53;;;2.20;;
65755;SDS011;69208;47.502;18.940;2023-07-31T03:44:20;3.33;;;2.28;;
65755;SDS011;69208;47.502;18.940;2023-07-31T03:45:23;4.80;;;2.45;;
65755;SDS011;69208;47.502;18.940;2023-07-31T03:46:26;3.47;;;2.20;;
65755;SDS011;69208;47.502;18.940;2023-07-31T03:47:29;3.83;;;2.30;;
65755;SDS011;69208;47.502;18.940;2023-07-31T03:48:32;3.05;;;2.47;;
65755;SDS011;69208;47.502;18.940;2023-07-31T03:49:35;4.82;;;2.33;;
65755;SDS011;69208;47.502;18.940;2023-07-31T03:50:38;3.47;;;2.20;;
65755;SDS011;69208;47.502;18.940;2023-07-31T03:51:41;2.20;;;2.00;;
65755;SDS011;69208;47.502;18.940;2023-07-31T03:52:44;3.08;;;2.20;;
65755;SDS011;69208;47.502;18.940;2023-07-31T03:53:47;4.07;;;2.10;;
65755;SDS011;69208;47.502;18.940;2023-07-31T03:54:50;2.78;;;2.10;;
65755;SDS011;69208;47.502;18.940;2023-07-31T03:55:53;3.03;;;2.10;;
65755;SDS011;69208;47.502;18.940;2023-07-31T03:56:56;2.80;;;2.30;;
65755;SDS011;69208;47.502;18.940;2023-07-31T03:57:59;3.22;;;2.28;;
65755;SDS011;69208;47.502;18.940;2023-07-31T03:59:02;2.20;;;1.92;;
65755;SDS011;69208;47.502;18.940;2023-07-31T04:00:05;4.37;;;2.12;;
65755;SDS011;69208;47.502;18.940;2023-07-31T04:01:09;3.03;;;2.15;;
65755;SDS011;69208;47.502;18.940;2023-07-31T04:02:12;2.72;;;2.15;;
65755;SDS011;69208;47.502;18.940;2023-07-31T04:03:17;3.40;;;2.20;;
65755;SDS011;69208;47.502;18.940;2023-07-31T04:04:19;3.85;;;2.20;;
65755;SDS011;69208;47.502;18.940;2023-07-31T04:05:22;5.57;;;2.40;;
65755;SDS011;69208;47.502;18.940;2023-07-31T04:06:25;6.50;;;2.40;;
65755;SDS011;69208;47.502;18.940;2023-07-31T04:07:28;2.95;;;2.00;;
65755;SDS011;69208;47.502;18.940;2023-07-31T04:08:31;4.18;;;2.20;;
65755;SDS011;69208;47.502;18.940;2023-07-31T04:09:34;3.53;;;2.12;;
65755;SDS011;69208;47.502;18.940;2023-07-31T04:10:37;3.25;;;2.30;;
65755;SDS011;69208;47.502;18.940;2023-07-31T04:11:40;3.35;;;2.10;;
65755;SDS011;69208;47.502;18.940;2023-07-31T04:12:43;2.95;;;2.20;;
65755;SDS011;69208;47.502;18.940;2023-07-31T04:13:46;3.55;;;2.10;;
65755;SDS011;69208;47.502;18.940;2023-07-31T04:14:49;4.10;;;2.00;;
65755;SDS011;69208;47.502;18.940;2023-07-31T04:15:52;3.42;;;2.05;;
65755;SDS011;69208;47.502;18.940;2023-07-31T04:16:56;3.87;;;2.28;;
65755;SDS011;69208;47.502;18.940;2023-07-31T04:17:59;3.90;;;2.20;;
65755;SDS011;69208;47.502;18.940;2023-07-31T04:19:03;2.58;;;2.00;;
65755;SDS011;69208;47.502;18.940;2023-07-31T04:20:06;2.67;;;2.03;;
65755;SDS011;69208;47.502;18.940;2023-07-31T04:21:09;3.10;;;2.30;;
65755;SDS011;69208;47.502;18.940;2023-07-31T04:22:12;2.90;;;2.20;;
65755;SDS011;69208;47.502;18.940;2023-07-31T04:23:15;2.60;;;1.90;;
65755;SDS011;69208;47.502;18.940;2023-07-31T04:24:18;1.85;;;1.75;;
65755;SDS011;69208;47.502;18.940;2023-07-31T04:25:26;4.30;;;2.20;;
65755;SDS011;69208;47.502;18.940;2023-07-31T04:26:29;4.60;;;2.03;;
65755;SDS011;69208;47.502;18.940;2023-07-31T04:27:32;2.20;;;1.90;;
65755;SDS011;69208;47.502;18.940;2023-07-31T04:28:35;3.17;;;2.20;;
65755;SDS011;69208;47.502;18.940;2023-07-31T04:29:38;2.42;;;2.00;;
65755;SDS011;69208;47.502;18.940;2023-07-31T04:30:42;4.60;;;2.10;;
65755;SDS011;69208;47.502;18.940;2023-07-31T04:31:45;2.85;;;2.17;;
65755;SDS011;69208;47.502;18.940;2023-07-31T04:32:48;3.78;;;2.20;;
65755;SDS011;69208;47.502;18.940;2023-07-31T04:33:51;2.65;;;1.92;;
65755;SDS011;69208;47.502;18.940;2023-07-31T04:34:54;3.25;;;2.20;;
65755;SDS011;69208;47.502;18.940;2023-07-31T04:35:57;3.10;;;1.90;;
65755;SDS011;69208;47.502;18.940;2023-07-31T04:37:00;3.47;;;1.92;;
65755;SDS011;69208;47.502;18.940;2023-07-31T04:38:03;2.28;;;1.92;;
65755;SDS011;69208;47.502;18.940;2023-07-31T04:39:06;3.35;;;2.03;;
65755;SDS011;69208;47.502;18.940;2023-07-31T04:40:09;2.70;;;1.98;;
65755;SDS011;69208;47.502;18.940;2023-07-31T04:41:12;3.12;;;2.10;;
65755;SDS011;69208;47.502;18.940;2023-07-31T04:42:15;2.25;;;1.92;;
65755;SDS011;69208;47.502;18.940;2023-07-31T04:43:18;2.87;;;1.92;;
65755;SDS011;69208;47.502;18.940;2023-07-31T04:44:21;2.72;;;1.80;;
65755;SDS011;69208;47.502;18.940;2023-07-31T04:45:24;3.72;;;1.92;;
65755;SDS011;69208;47.502;18.940;2023-07-31T04:46:27;2.45;;;1.95;;
65755;SDS011;69208;47.502;18.940;2023-07-31T04:47:30;3.78;;;1.83;;
65755;SDS011;69208;47.502;18.940;2023-07-31T04:48:33;4.32;;;2.00;;
65755;SDS011;69208;47.502;18.940;2023-07-31T04:49:36;2.85;;;2.08;;
65755;SDS011;69208;47.502;18.940;2023-07-31T04:50:39;2.53;;;1.90;;
65755;SDS011;69208;47.502;18.940;2023-07-31T04:51:42;4.07;;;1.73;;
65755;SDS011;69208;47.502;18.940;2023-07-31T04:52:45;4.35;;;2.05;;
65755;SDS011;69208;47.502;18.940;2023-07-31T04:53:47;4.70;;;1.87;;
65755;SDS011;69208;47.502;18.940;2023-07-31T04:54:50;3.95;;;1.90;;
65755;SDS011;69208;47.502;18.940;2023-07-31T04:55:53;3.12;;;1.85;;
65755;SDS011;69208;47.502;18.940;2023-07-31T04:56:57;3.53;;;1.98;;
65755;SDS011;69208;47.502;18.940;2023-07-31T04:57:59;2.25;;;1.73;;
65755;SDS011;69208;47.502;18.940;2023-07-31T04:59:02;4.32;;;2.00;;
65755;SDS011;69208;47.502;18.940;2023-07-31T05:00:07;4.03;;;2.20;;
65755;SDS011;69208;47.502;18.940;2023-07-31T05:01:10;3.90;;;1.95;;
65755;SDS011;69208;47.502;18.940;2023-07-31T05:02:13;3.90;;;1.83;;
65755;SDS011;69208;47.502;18.940;2023-07-31T05:03:16;4.35;;;2.00;;
65755;SDS011;69208;47.502;18.940;2023-07-31T05:04:19;3.37;;;1.90;;
65755;SDS011;69208;47.502;18.940;2023-07-31T05:05:22;4.95;;;1.87;;
65755;SDS011;69208;47.502;18.940;2023-07-31T05:06:25;3.12;;;2.00;;
65755;SDS011;69208;47.502;18.940;2023-07-31T05:07:28;4.80;;;2.15;;
65755;SDS011;69208;47.502;18.940;2023-07-31T05:08:31;3.95;;;1.90;;
65755;SDS011;69208;47.502;18.940;2023-07-31T05:09:34;3.03;;;2.12;;
65755;SDS011;69208;47.502;18.940;2023-07-31T05:10:37;2.78;;;1.95;;
65755;SDS011;69208;47.502;18.940;2023-07-31T05:11:40;2.60;;;1.92;;
65755;SDS011;69208;47.502;18.940;2023-07-31T05:12:45;3.15;;;1.90;;
65755;SDS011;69208;47.502;18.940;2023-07-31T05:13:48;3.60;;;2.00;;
65755;SDS011;69208;47.502;18.940;2023-07-31T05:14:51;2.80;;;2.12;;
65755;SDS011;69208;47.502;18.940;2023-07-31T05:15:54;2.80;;;2.00;;
65755;SDS011;69208;47.502;18.940;2023-07-31T05:16:57;3.35;;;1.83;;
65755;SDS011;69208;47.502;18.940;2023-07-31T05:17:59;3.85;;;2.20;;
65755;SDS011;69208;47.502;18.940;2023-07-31T05:19:02;5.37;;;2.20;;
65755;SDS011;69208;47.502;18.940;2023-07-31T05:20:06;2.62;;;2.03;;
65755;SDS011;69208;47.502;18.940;2023-07-31T05:21:09;7.22;;;2.70;;
65755;SDS011;69208;47.502;18.940;2023-07-31T05:22:12;2.87;;;1.98;;
65755;SDS011;69208;47.502;18.940;2023-07-31T05:23:15;4.28;;;2.10;;
65755;SDS011;69208;47.502;18.940;2023-07-31T05:24:18;3.00;;;2.05;;
65755;SDS011;69208;47.502;18.940;2023-07-31T05:25:21;3.67;;;2.15;;
65755;SDS011;69208;47.502;18.940;2023-07-31T05:26:24;2.85;;;2.17;;
65755;SDS011;69208;47.502;18.940;2023-07-31T05:27:27;3.97;;;2.10;;
65755;SDS011;69208;47.502;18.940;2023-07-31T05:28:29;3.70;;;2.10;;
65755;SDS011;69208;47.502;18.940;2023-07-31T05:29:32;5.07;;;2.17;;
65755;SDS011;69208;47.502;18.940;2023-07-31T05:30:35;5.07;;;2.10;;
65755;SDS011;69208;47.502;18.940;2023-07-31T05:31:38;4.80;;;2.20;;
65755;SDS011;69208;47.502;18.940;2023-07-31T05:32:41;4.15;;;2.17;;
65755;SDS011;69208;47.502;18.940;2023-07-31T05:33:45;5.90;;;2.28;;
65755;SDS011;69208;47.502;18.940;2023-07-31T05:34:50;3.37;;;2.00;;
65755;SDS011;69208;47.502;18.940;2023-07-31T05:35:54;5.82;;;2.30;;
65755;SDS011;69208;47.502;18.940;2023-07-31T05:36:57;4.60;;;2.10;;
65755;SDS011;69208;47.502;18.940;2023-07-31T05:38:00;3.42;;;2.00;;
65755;SDS011;69208;47.502;18.940;2023-07-31T05:39:03;5.15;;;2.22;;
65755;SDS011;69208;47.502;18.940;2023-07-31T05:40:10;4.10;;;2.15;;
65755;SDS011;69208;47.502;18.940;2023-07-31T05:41:13;3.85;;;2.08;;
65755;SDS011;69208;47.502;18.940;2023-07-31T05:42:16;8.45;;;2.10;;
65755;SDS011;69208;47.502;18.940;2023-07-31T05:43:19;3.17;;;1.90;;
65755;SDS011;69208;47.502;18.940;2023-07-31T05:44:22;3.33;;;2.17;;
65755;SDS011;69208;47.502;18.940;2023-07-31T05:45:25;4.97;;;2.00;;
65755;SDS011;69208;47.502;18.940;2023-07-31T05:46:28;4.72;;;2.12;;
65755;SDS011;69208;47.502;18.940;2023-07-31T05:47:31;3.87;;;2.10;;
65755;SDS011;69208;47.502;18.940;2023-07-31T05:48:34;3.70;;;1.90;;
65755;SDS011;69208;47.502;18.940;2023-07-31T05:49:37;2.28;;;1.90;;
65755;SDS011;69208;47.502;18.940;2023-07-31T05:50:40;5.95;;;2.00;;
65755;SDS011;69208;47.502;18.940;2023-07-31T05:51:43;3.30;;;2.05;;
65755;SDS011;69208;47.502;18.940;2023-07-31T05:52:46;3.90;;;2.15;;
65755;SDS011;69208;47.502;18.940;2023-07-31T05:53:49;3.85;;;1.95;;
65755;SDS011;69208;47.502;18.940;2023-07-31T05:54:52;3.62;;;1.83;;
65755;SDS011;69208;47.502;18.940;2023-07-31T05:55:55;3.50;;;2.10;;
65755;SDS011;69208;47.502;18.940;2023-07-31T05:56:58;4.22;;;2.10;;
65755;SDS011;69208;47.502;18.940;2023-07-31T05:58:01;4.32;;;2.08;;
65755;SDS011;69208;47.502;18.940;2023-07-31T05:59:04;4.60;;;2.22;;
65755;SDS011;69208;47.502;18.940;2023-07-31T06:00:07;3.20;;;1.98;;
65755;SDS011;69208;47.502;18.940;2023-07-31T06:01:11;3.15;;;2.00;;
65755;SDS011;69208;47.502;18.940;2023-07-31T06:02:14;4.53;;;2.10;;
65755;SDS011;69208;47.502;18.940;2023-07-31T06:03:17;3.08;;;1.98;;
65755;SDS011;69208;47.502;18.940;2023-07-31T06:04:20;3.58;;;2.05;;
65755;SDS011;69208;47.502;18.940;2023-07-31T06:05:26;7.95;;;1.98;;
65755;SDS011;69208;47.502;18.940;2023-07-31T06:06:31;3.80;;;2.00;;
65755;SDS011;69208;47.502;18.940;2023-07-31T06:07:34;4.90;;;2.00;;
65755;SDS011;69208;47.502;18.940;2023-07-31T06:08:37;3.65;;;1.98;;
65755;SDS011;69208;47.502;18.940;2023-07-31T06:09:40;2.85;;;1.90;;
65755;SDS011;69208;47.502;18.940;2023-07-31T06:10:43;4.30;;;1.98;;
65755;SDS011;69208;47.502;18.940;2023-07-31T06:11:46;2.30;;;1.70;;
65755;SDS011;69208;47.502;18.940;2023-07-31T06:12:50;6.85;;;2.17;;
65755;SDS011;69208;47.502;18.940;2023-07-31T06:13:52;5.25;;;2.10;;
65755;SDS011;69208;47.502;18.940;2023-07-31T06:14:55;3.47;;;2.00;;
65755;SDS011;69208;47.502;18.940;2023-07-31T06:15:58;5.10;;;2.10;;
65755;SDS011;69208;47.502;18.940;2023-07-31T06:17:02;7.93;;;2.12;;
65755;SDS011;69208;47.502;18.940;2023-07-31T06:18:05;3.80;;;2.08;;
65755;SDS011;69208;47.502;18.940;2023-07-31T06:19:10;3.70;;;2.15;;
65755;SDS011;69208;47.502;18.940;2023-07-31T06:20:13;3.22;;;1.90;;
65755;SDS011;69208;47.502;18.940;2023-07-31T06:21:16;4.03;;;1.98;;
65755;SDS011;69208;47.502;18.940;2023-07-31T06:22:19;4.45;;;2.00;;
65755;SDS011;69208;47.502;18.940;2023-07-31T06:23:22;4.78;;;2.35;;
65755;SDS011;69208;47.502;18.940;2023-07-31T06:24:25;3.83;;;2.00;;